Time;durP1;ratioP1;P1;durP2;ratioP2;P2;SDS_P1;SDS_P2;PMS_P1;PMS_P2;Temp;Humidity;BMP_temperature;BMP_pressure;BME280_temperature;BME280_humidity;BME280_pressure;Samples;Min_cycle;Max_cycle;Signal;HPM_P1;HPM_P2
2022/04/30 00:02:09;;;;;;;8.00;6.25;;;;;;;16.87;41.39;101892.28;4953020;28;20051;-61
2022/04/30 00:04:40;;;;;;;8.70;6.60;;;;;;;16.84;41.57;101896.94;4953297;28;20049;-61
2022/04/30 00:07:08;;;;;;;10.15;6.15;;;;;;;16.83;41.86;101895.25;4953682;28;20059;-61
2022/04/30 00:09:36;;;;;;;8.27;6.95;;;;;;;16.83;41.56;101890.78;4953283;28;20055;-61
2022/04/30 00:12:03;;;;;;;8.65;6.63;;;;;;;16.82;41.66;101894.38;4962110;28;20047;-62
2022/04/30 00:14:31;;;;;;;10.43;6.65;;;;;;;16.81;41.71;101890.00;4953684;28;20085;-62
2022/04/30 00:16:57;;;;;;;10.85;7.30;;;;;;;16.78;41.94;101891.06;4952361;28;20055;-62
2022/04/30 00:19:24;;;;;;;9.52;7.20;;;;;;;16.76;42.06;101884.16;4952781;28;20451;-61
2022/04/30 00:21:51;;;;;;;10.10;6.53;;;;;;;16.71;42.25;101878.31;4952974;28;20054;-61
2022/04/30 00:24:18;;;;;;;11.48;7.03;;;;;;;16.67;42.25;101876.81;4952885;28;20051;-61
2022/04/30 00:26:46;;;;;;;8.35;6.78;;;;;;;16.65;42.53;101874.28;4952651;28;20047;-61
2022/04/30 00:29:13;;;;;;;10.57;7.07;;;;;;;16.62;42.65;101870.00;4941042;28;20043;-61
2022/04/30 00:31:40;;;;;;;11.38;6.53;;;;;;;16.61;42.69;101868.31;4955675;28;20062;-61
2022/04/30 00:34:07;;;;;;;11.95;6.57;;;;;;;16.61;42.43;101865.66;4955999;29;20043;-62
2022/04/30 00:36:34;;;;;;;14.40;6.70;;;;;;;16.62;42.78;101863.84;4956264;28;20047;-61
2022/04/30 00:39:01;;;;;;;8.98;6.30;;;;;;;16.60;42.54;101869.25;4956155;28;20507;-61
2022/04/30 00:41:32;;;;;;;9.20;6.57;;;;;;;16.56;42.69;101858.97;4956257;28;20094;-61
2022/04/30 00:44:00;;;;;;;11.93;6.78;;;;;;;16.55;42.76;101859.91;4956277;28;20054;-61
2022/04/30 00:46:27;;;;;;;9.77;6.90;;;;;;;16.53;42.99;101861.78;4956089;28;20075;-61
2022/04/30 00:48:54;;;;;;;10.57;6.68;;;;;;;16.50;43.15;101857.53;4955027;28;20047;-61
2022/04/30 00:51:22;;;;;;;9.75;6.65;;;;;;;16.49;43.00;101855.84;4955785;28;20472;-61
2022/04/30 00:53:51;;;;;;;7.85;5.97;;;;;;;16.51;43.12;101855.75;4949250;29;20039;-61
2022/04/30 00:56:24;;;;;;;7.90;5.90;;;;;;;16.47;43.29;101858.59;4955977;28;20058;-61
2022/04/30 00:58:53;;;;;;;9.15;6.25;;;;;;;16.44;43.29;101861.44;4956072;28;20102;-61
2022/04/30 01:01:20;;;;;;;10.35;6.78;;;;;;;16.40;43.59;101857.28;4956060;28;20455;-61
2022/04/30 01:03:47;;;;;;;10.13;6.75;;;;;;;16.35;43.74;101854.06;4955846;28;20555;-61
2022/04/30 01:06:15;;;;;;;7.68;6.22;;;;;;;16.33;43.51;101858.63;4954682;28;20065;-61
2022/04/30 01:08:42;;;;;;;8.68;5.88;;;;;;;16.33;43.53;101851.53;4955663;28;20048;-61
2022/04/30 01:11:08;;;;;;;8.25;6.25;;;;;;;16.31;43.38;101848.09;4954918;28;20043;-61
2022/04/30 01:13:37;;;;;;;10.00;6.47;;;;;;;16.28;43.79;101850.13;4955542;28;20047;-61
2022/04/30 01:16:08;;;;;;;9.60;6.07;;;;;;;16.29;43.39;101854.44;4955600;28;20047;-61
2022/04/30 01:18:36;;;;;;;9.00;6.60;;;;;;;16.26;43.46;101844.91;4955279;28;20047;-61
2022/04/30 01:21:10;;;;;;;8.80;6.85;;;;;;;16.22;43.46;101847.88;4954094;28;20059;-61
2022/04/30 01:23:37;;;;;;;8.02;6.63;;;;;;;16.17;43.71;101845.50;4955317;28;20047;-61
2022/04/30 01:26:07;;;;;;;10.60;6.60;;;;;;;16.12;43.80;101848.41;4955410;28;20047;-61
2022/04/30 01:28:34;;;;;;;8.75;6.50;;;;;;;16.11;44.00;101843.22;4954278;28;20106;-61
2022/04/30 01:31:01;;;;;;;13.88;7.00;;;;;;;16.08;44.04;101838.97;4955530;28;20051;-61
2022/04/30 01:38:59;;;;;;;8.77;6.70;;;;;;;16.08;44.02;101828.38;4951150;29;20054;-61
2022/04/30 01:41:26;;;;;;;8.77;6.60;;;;;;;16.09;43.91;101831.91;4959322;28;20046;-61
2022/04/30 01:43:54;;;;;;;8.75;6.55;;;;;;;16.08;44.07;101822.25;4955139;28;20058;-61
2022/04/30 01:46:21;;;;;;;7.88;6.65;;;;;;;16.08;43.84;101822.25;4955109;28;20058;-61
2022/04/30 01:48:48;;;;;;;8.18;6.38;;;;;;;16.08;43.77;101817.78;4955210;28;20050;-61
2022/04/30 01:51:15;;;;;;;7.45;6.03;;;;;;;16.07;43.91;101815.25;4954783;28;20047;-61
2022/04/30 01:53:42;;;;;;;8.25;6.47;;;;;;;16.05;43.96;101815.34;4954245;28;20051;-61
2022/04/30 01:56:08;;;;;;;9.18;6.43;;;;;;;16.06;44.03;101808.25;4955093;28;20050;-62
2022/04/30 01:58:35;;;;;;;7.82;6.07;;;;;;;16.03;44.11;101813.75;4954902;28;20044;-61
2022/04/30 02:01:02;;;;;;;8.85;6.03;;;;;;;15.99;43.94;101813.09;4954696;28;20400;-62
2022/04/30 02:03:29;;;;;;;7.38;6.20;;;;;;;15.98;44.24;101814.03;4954873;28;20043;-61
2022/04/30 02:05:57;;;;;;;8.48;6.28;;;;;;;15.94;44.30;101817.81;4954748;28;20047;-61
2022/04/30 02:08:24;;;;;;;9.13;7.00;;;;;;;15.88;44.56;101812.91;4954710;28;20518;-61
2022/04/30 02:10:50;;;;;;;8.07;6.32;;;;;;;15.83;44.89;101814.03;4953878;28;20106;-61
2022/04/30 02:13:23;;;;;;;8.02;6.40;;;;;;;15.77;45.09;101808.22;4954732;28;20407;-61
2022/04/30 02:15:52;;;;;;;9.75;5.97;;;;;;;15.73;45.21;101807.59;4954760;28;20053;-61
2022/04/30 02:18:20;;;;;;;8.93;6.18;;;;;;;15.77;45.13;101800.28;4954441;28;20134;-61
2022/04/30 02:20:50;;;;;;;8.20;6.28;;;;;;;15.75;45.19;101800.38;4954229;28;20416;-61
2022/04/30 02:23:17;;;;;;;8.27;6.25;;;;;;;15.75;45.15;101800.38;4954414;28;20047;-61
2022/04/30 02:25:45;;;;;;;9.75;6.10;;;;;;;15.75;45.03;101797.72;4953431;28;20086;-61
2022/04/30 02:28:12;;;;;;;8.68;6.00;;;;;;;15.76;45.22;101796.78;4954519;28;20082;-61
2022/04/30 02:30:39;;;;;;;11.07;5.60;;;;;;;15.79;45.13;101806.34;4954206;28;20046;-61
2022/04/30 02:33:08;;;;;;;9.50;6.10;;;;;;;15.82;44.95;101800.88;4954464;28;20125;-61
2022/04/30 02:35:39;;;;;;;12.35;6.05;;;;;;;15.85;44.90;101811.28;4954174;28;20054;-61
2022/04/30 02:38:08;;;;;;;8.45;6.35;;;;;;;15.88;44.55;101812.91;4954266;28;20059;-61
2022/04/30 02:40:36;;;;;;;9.65;6.85;;;;;;;15.89;44.25;101810.16;4954040;28;20047;-61
2022/04/30 02:43:10;;;;;;;11.23;6.63;;;;;;;15.87;44.30;101808.53;4953382;28;20066;-61
2022/04/30 02:45:39;;;;;;;10.80;6.78;;;;;;;15.85;44.57;101813.09;4954076;28;20057;-61
2022/04/30 02:48:07;;;;;;;10.43;7.03;;;;;;;15.88;44.33;101807.59;4954349;28;20381;-61
2022/04/30 02:50:35;;;;;;;9.18;6.95;;;;;;;15.88;44.35;101805.78;4953935;28;20061;-61
2022/04/30 02:53:03;;;;;;;9.90;7.25;;;;;;;15.85;44.16;101806.00;4940861;29;20496;-61
2022/04/30 02:55:30;;;;;;;10.80;6.40;;;;;;;15.85;44.25;101802.50;4954033;28;20055;-61
2022/04/30 03:00:45;;;;;;;8.20;6.30;;;;;;;15.81;44.50;101796.53;4953090;28;20051;-61
2022/04/30 03:03:14;;;;;;;7.55;6.00;;;;;;;15.79;44.40;101795.75;4950642;28;20054;-61
2022/04/30 03:05:43;;;;;;;11.35;6.30;;;;;;;15.75;44.60;101788.97;4950740;28;20047;-61
2022/04/30 03:08:13;;;;;;;7.18;6.30;;;;;;;15.68;44.77;101796.44;4950936;28;20500;-61
2022/04/30 03:10:41;;;;;;;8.18;6.35;;;;;;;15.58;45.49;101796.13;4950959;28;20500;-61
2022/04/30 03:13:08;;;;;;;9.20;6.60;;;;;;;15.49;45.67;101788.75;4950815;28;20057;-61
2022/04/30 03:15:35;;;;;;;9.35;6.70;;;;;;;15.44;45.90;101783.75;4949636;28;20464;-62
2022/04/30 03:23:37;;;;;;;9.90;6.80;;;;;;;15.28;46.77;101783.81;4950461;28;20110;-61
2022/04/30 03:26:08;;;;;;;12.50;6.55;;;;;;;15.22;46.85;101789.47;4950796;28;20090;-61
2022/04/30 03:28:40;;;;;;;9.85;6.97;;;;;;;15.17;47.03;101789.75;4950513;28;20122;-61
2022/04/30 03:31:09;;;;;;;10.50;6.32;;;;;;;15.11;47.17;101787.47;4949557;28;20106;-61
2022/04/30 03:33:37;;;;;;;8.57;6.47;;;;;;;15.12;47.26;101775.09;4951049;28;20114;-61
2022/04/30 03:36:04;;;;;;;8.40;6.80;;;;;;;15.09;46.99;101788.50;4954197;28;20043;-61
2022/04/30 03:38:31;;;;;;;8.98;6.72;;;;;;;15.10;47.13;101792.84;4953820;28;20055;-61
2022/04/30 03:40:58;;;;;;;8.75;7.00;;;;;;;15.10;47.29;101796.34;4953979;28;20496;-61
2022/04/30 03:43:24;;;;;;;11.98;6.97;;;;;;;15.08;47.31;101792.91;4954231;28;20047;-61
2022/04/30 03:45:51;;;;;;;7.18;6.18;;;;;;;15.04;47.35;101788.75;4953991;28;20043;-61
2022/04/30 03:48:18;;;;;;;10.18;6.97;;;;;;;15.03;47.64;101784.41;4953161;28;20043;-61
2022/04/30 03:50:44;;;;;;;8.55;7.00;;;;;;;15.05;47.77;101787.00;4953435;28;20337;-61
2022/04/30 03:53:11;;;;;;;8.38;6.60;;;;;;;15.03;47.83;101781.78;4954015;28;20077;-61
2022/04/30 03:55:38;;;;;;;9.07;6.70;;;;;;;15.02;47.85;101785.38;4954092;28;20082;-61
2022/04/30 03:58:05;;;;;;;10.52;6.40;;;;;;;15.01;47.80;101784.50;4953678;28;20058;-61
2022/04/30 04:00:32;;;;;;;11.68;7.25;;;;;;;14.94;47.75;101788.44;4953975;28;20909;-61
2022/04/30 04:02:59;;;;;;;8.15;6.65;;;;;;;14.91;48.16;101791.28;4953502;28;20039;-61
2022/04/30 04:05:28;;;;;;;9.75;6.90;;;;;;;14.83;48.40;101786.44;4952472;28;20163;-61
2022/04/30 04:07:57;;;;;;;8.93;6.70;;;;;;;14.84;48.58;101797.84;4953703;28;20128;-61
2022/04/30 04:10:24;;;;;;;9.70;7.18;;;;;;;14.79;48.67;101790.22;4953504;28;20040;-61
2022/04/30 04:12:50;;;;;;;11.05;7.57;;;;;;;14.72;48.82;101790.66;4953656;28;20055;-61
2022/04/30 04:18:03;;;;;;;11.88;7.60;;;;;;;14.66;48.78;101797.97;4953354;29;20141;-61
2022/04/30 04:20:29;;;;;;;9.70;7.78;;;;;;;14.66;49.10;101795.31;4952694;28;20122;-61
2022/04/30 04:22:56;;;;;;;143.20;18.73;;;;;;;14.63;49.14;101794.63;4952445;28;20062;-61
2022/04/30 04:28:08;;;;;;;132.18;19.92;;;;;;;14.60;49.80;101792.16;4953320;28;20051;-61
2022/04/30 04:30:35;;;;;;;183.13;30.90;;;;;;;14.59;49.70;101790.44;4953373;28;20126;-61
2022/04/30 04:33:02;;;;;;;67.80;15.20;;;;;;;14.56;49.77;101796.75;4953290;28;20550;-61
2022/04/30 04:35:29;;;;;;;51.03;10.95;;;;;;;14.51;50.27;101797.03;4952965;28;20053;-61
2022/04/30 04:37:56;;;;;;;246.20;27.30;;;;;;;14.50;50.49;101795.31;4952303;28;20509;-61
2022/04/30 04:40:23;;;;;;;79.18;14.55;;;;;;;14.46;50.74;101800.84;4952848;28;20070;-61
2022/04/30 04:42:49;;;;;;;22.27;9.13;;;;;;;14.48;50.63;101799.81;4940089;29;20381;-61
2022/04/30 04:45:17;;;;;;;17.95;8.32;;;;;;;14.54;50.16;101801.28;4952198;28;20919;-61
2022/04/30 04:47:49;;;;;;;89.05;15.85;;;;;;;14.54;50.25;101794.22;4952652;28;20468;-61
2022/04/30 04:50:17;;;;;;;96.28;16.38;;;;;;;14.57;50.06;101797.63;4952648;28;20138;-61
2022/04/30 04:52:44;;;;;;;44.20;11.93;;;;;;;14.63;49.75;101802.56;4952780;28;20039;-61
2022/04/30 04:55:12;;;;;;;25.90;9.85;;;;;;;14.68;49.72;101798.75;4951804;28;20563;-61
2022/04/30 04:57:38;;;;;;;35.42;10.27;;;;;;;14.73;49.59;101798.47;4952510;28;20051;-61
2022/04/30 05:00:07;;;;;;;29.70;9.60;;;;;;;14.72;49.48;101793.28;4953011;28;20058;-61
2022/04/30 05:02:35;;;;;;;22.50;10.60;;;;;;;14.74;49.69;101797.56;4952600;28;20051;-61
2022/04/30 05:05:03;;;;;;;15.52;9.40;;;;;;;14.76;50.00;101798.28;4952686;28;20131;-61
2022/04/30 05:07:30;;;;;;;14.40;9.88;;;;;;;14.78;49.99;101800.84;4952540;28;20047;-61
2022/04/30 05:09:57;;;;;;;21.45;9.73;;;;;;;14.82;49.79;101805.88;4951480;28;20039;-61
2022/04/30 05:12:23;;;;;;;22.15;9.77;;;;;;;14.81;49.96;101796.25;4952669;28;20063;-61
2022/04/30 05:14:53;;;;;;;15.38;9.05;;;;;;;14.88;49.94;101809.97;4952445;28;20047;-61
2022/04/30 05:17:20;;;;;;;15.93;8.48;;;;;;;14.88;49.60;101804.69;4952225;28;20047;-61
2022/04/30 05:19:46;;;;;;;12.18;9.30;;;;;;;14.90;49.65;101800.13;4951735;28;20106;-61
2022/04/30 05:22:26;;;;;;;12.82;8.32;;;;;;;14.93;49.84;101793.81;4952319;28;20110;-61
2022/04/30 05:24:55;;;;;;;24.17;10.30;;;;;;;14.98;49.56;101808.50;4951732;28;20054;-61
2022/04/30 05:27:21;;;;;;;21.85;10.90;;;;;;;15.02;49.55;101803.88;4951190;28;20121;-61
2022/04/30 05:29:48;;;;;;;13.57;9.80;;;;;;;15.11;49.42;101805.09;4952252;28;20106;-61
2022/04/30 05:32:15;;;;;;;16.38;9.38;;;;;;;15.13;49.63;101803.22;4952164;28;20054;-62
2022/04/30 05:34:41;;;;;;;20.85;9.35;;;;;;;15.15;49.81;101804.84;4952125;28;20079;-61
2022/04/30 05:37:08;;;;;;;17.15;9.85;;;;;;;15.26;49.58;101803.34;4952154;28;20381;-61
2022/04/30 05:39:35;;;;;;;14.20;8.10;;;;;;;15.58;49.81;101811.13;4951981;28;20058;-62
2022/04/30 05:42:02;;;;;;;14.80;8.70;;;;;;;16.03;49.91;101797.84;4951043;28;20114;-62
2022/04/30 05:44:28;;;;;;;14.80;9.48;;;;;;;15.88;49.47;101797.00;4951600;28;20051;-61
2022/04/30 05:46:55;;;;;;;16.38;9.13;;;;;;;15.87;49.21;101798.81;4951929;28;20055;-61
2022/04/30 05:49:22;;;;;;;10.98;7.97;;;;;;;15.86;49.07;101793.59;4951678;28;20047;-61
2022/04/30 05:51:49;;;;;;;12.10;7.68;;;;;;;15.92;49.20;101793.22;4951570;28;20487;-61
2022/04/30 05:54:16;;;;;;;15.35;7.82;;;;;;;16.41;49.20;101787.44;4948118;29;20050;-61
2022/04/30 05:56:43;;;;;;;16.52;8.13;;;;;;;16.71;49.29;101790.84;4951234;28;20135;-61
2022/04/30 05:59:09;;;;;;;14.30;9.43;;;;;;;16.82;49.55;101785.69;4950231;28;20050;-62
2022/04/30 06:01:36;;;;;;;13.13;9.25;;;;;;;16.55;49.78;101783.06;4952053;28;20444;-61
2022/04/30 06:04:03;;;;;;;14.18;9.13;;;;;;;16.50;49.30;101780.72;4951550;28;20051;-61
2022/04/30 06:06:30;;;;;;;17.25;9.25;;;;;;;16.54;49.27;101791.97;4951244;28;20989;-62
2022/04/30 06:08:58;;;;;;;15.80;9.57;;;;;;;16.53;48.97;101795.56;4951293;28;20051;-61
2022/04/30 06:11:25;;;;;;;14.30;8.85;;;;;;;16.60;49.00;101791.56;4951254;28;20059;-61
2022/04/30 06:13:52;;;;;;;15.68;9.60;;;;;;;16.61;48.74;101790.63;4951372;28;20484;-61
2022/04/30 06:16:18;;;;;;;25.45;9.75;;;;;;;16.48;49.15;101787.91;4950113;28;20102;-61
2022/04/30 06:18:45;;;;;;;15.85;9.10;;;;;;;16.60;49.22;101788.91;4946510;28;20051;-62
2022/04/30 06:21:31;;;;;;;18.38;9.23;;;;;;;16.56;49.11;101793.56;4949859;29;20515;-62
2022/04/30 06:23:58;;;;;;;18.02;9.23;;;;;;;16.68;49.03;101791.91;4940752;29;20059;-62
2022/04/30 06:26:32;;;;;;;13.30;8.40;;;;;;;16.92;48.60;101794.75;4953881;28;20079;-61
2022/04/30 06:29:00;;;;;;;15.95;8.23;;;;;;;17.04;48.34;101797.53;4952015;28;20098;-61
2022/04/30 06:31:27;;;;;;;15.00;7.93;;;;;;;17.23;48.34;101783.88;4958101;28;20077;-61
2022/04/30 06:33:54;;;;;;;12.10;7.70;;;;;;;17.35;47.82;101787.50;4953312;28;20053;-62
2022/04/30 06:36:22;;;;;;;15.75;7.97;;;;;;;17.51;47.52;101781.97;4959186;28;20488;-62
2022/04/30 06:38:49;;;;;;;12.20;7.38;;;;;;;17.65;46.86;101781.88;4951805;28;20052;-61
2022/04/30 06:41:16;;;;;;;8.27;5.05;;;;;;;17.79;46.53;101778.25;4936565;28;20052;-62
2022/04/30 06:43:43;;;;;;;9.40;3.95;;;;;;;17.94;45.51;101776.31;4931965;29;20107;-61
2022/04/30 06:46:10;;;;;;;4.78;3.38;;;;;;;18.06;44.81;101783.41;4950297;28;20066;-62
2022/04/30 06:48:37;;;;;;;5.63;3.80;;;;;;;18.17;43.74;101782.66;4950727;28;20130;-61
2022/04/30 06:51:04;;;;;;;5.38;2.70;;;;;;;18.30;42.91;101773.78;4949226;28;20051;-62
2022/04/30 06:59:09;;;;;;;3.10;2.50;;;;;;;18.69;40.81;101775.31;4933688;29;20047;-61
2022/04/30 07:01:49;;;;;;;3.97;2.60;;;;;;;18.82;39.88;101779.72;4938589;29;20050;-61
2022/04/30 07:04:17;;;;;;;3.28;2.30;;;;;;;18.91;38.82;101774.56;4937406;29;20539;-62
2022/04/30 07:06:47;;;;;;;6.10;2.88;;;;;;;19.02;38.03;101768.44;4945954;28;20407;-60
2022/04/30 07:09:13;;;;;;;6.68;3.05;;;;;;;19.17;37.32;101773.53;4936830;28;20043;-62
2022/04/30 07:11:40;;;;;;;4.60;2.75;;;;;;;19.29;37.39;101769.06;4944972;28;20111;-62
2022/04/30 07:14:07;;;;;;;2.85;2.50;;;;;;;19.42;36.67;101770.66;4942323;29;20043;-62
2022/04/30 07:16:34;;;;;;;5.28;2.63;;;;;;;19.57;36.46;101765.13;4949241;28;20051;-62
2022/04/30 07:19:01;;;;;;;4.45;2.60;;;;;;;19.65;35.84;101761.84;4939661;28;20048;-62
2022/04/30 07:21:31;;;;;;;4.07;2.33;;;;;;;19.74;35.72;101769.97;4945954;28;20055;-63
2022/04/30 07:23:58;;;;;;;5.10;2.72;;;;;;;19.61;35.69;101766.56;4947018;28;20043;-61
2022/04/30 07:26:25;;;;;;;3.17;2.22;;;;;;;19.53;35.62;101771.66;4941064;28;20046;-61
2022/04/30 07:28:52;;;;;;;3.20;2.30;;;;;;;19.66;35.24;101771.53;4942195;28;20044;-61
2022/04/30 07:31:19;;;;;;;3.17;2.40;;;;;;;19.93;34.41;101765.84;4937782;28;20111;-61
2022/04/30 07:33:47;;;;;;;5.50;2.40;;;;;;;20.05;34.30;101767.53;4942744;29;20047;-61
2022/04/30 07:36:14;;;;;;;3.53;2.35;;;;;;;20.17;33.47;101763.00;4949108;28;20039;-62
2022/04/30 07:38:40;;;;;;;4.25;2.60;;;;;;;20.28;33.08;101766.63;4944831;28;20055;-62
2022/04/30 07:41:07;;;;;;;3.47;2.50;;;;;;;20.38;32.94;101767.59;4940620;28;20080;-61
2022/04/30 07:43:34;;;;;;;3.38;2.40;;;;;;;20.49;32.63;101764.03;4951676;28;20122;-62
2022/04/30 07:46:00;;;;;;;3.42;2.42;;;;;;;20.58;32.38;101757.91;4949875;28;20043;-62
2022/04/30 07:48:27;;;;;;;5.80;3.97;;;;;;;20.75;31.77;101761.88;4943745;28;20052;-61
2022/04/30 07:50:57;;;;;;;5.55;3.22;;;;;;;20.88;31.75;101764.38;4945708;29;20039;-61
2022/04/30 07:53:25;;;;;;;4.60;2.50;;;;;;;20.98;31.69;101761.78;4949459;28;20070;-61
2022/04/30 07:55:54;;;;;;;6.32;2.70;;;;;;;21.07;31.62;101752.13;4949155;28;20043;-61
2022/04/30 07:58:21;;;;;;;6.25;3.00;;;;;;;21.21;31.30;101755.28;4948955;28;20150;-61
2022/04/30 08:00:48;;;;;;;10.30;2.80;;;;;;;21.29;31.31;101752.00;4950324;28;20043;-61
2022/04/30 08:03:14;;;;;;;5.72;2.30;;;;;;;21.37;31.11;101752.16;4944545;29;20556;-61
2022/04/30 08:05:41;;;;;;;4.32;2.53;;;;;;;21.45;30.89;101745.31;4942186;29;20043;-62
2022/04/30 08:08:08;;;;;;;10.48;3.38;;;;;;;21.53;30.83;101751.69;4950091;28;20047;-62
2022/04/30 08:10:35;;;;;;;5.50;2.50;;;;;;;21.64;30.27;101753.41;4950100;28;20055;-61
2022/04/30 08:13:01;;;;;;;5.82;2.10;;;;;;;21.74;30.29;101748.13;4950235;28;20051;-62
2022/04/30 08:15:28;;;;;;;4.50;2.63;;;;;;;21.81;30.35;101754.63;4949876;28;20047;-61
2022/04/30 08:17:55;;;;;;;7.18;2.75;;;;;;;21.82;29.70;101755.44;4949912;28;20476;-61
2022/04/30 08:20:22;;;;;;;5.43;2.78;;;;;;;22.00;29.07;101747.63;4951448;28;20043;-61
2022/04/30 08:22:48;;;;;;;5.25;2.70;;;;;;;22.05;28.81;101749.88;4953908;28;20039;-62
2022/04/30 08:25:15;;;;;;;5.43;2.40;;;;;;;22.17;28.64;101757.66;4952814;28;20046;-62
2022/04/30 08:27:42;;;;;;;3.70;2.60;;;;;;;22.27;28.76;101755.00;4955578;28;20051;-61
2022/04/30 08:30:10;;;;;;;4.15;2.60;;;;;;;22.38;28.08;101746.00;4957716;28;20051;-61
2022/04/30 08:32:37;;;;;;;3.42;2.20;;;;;;;22.49;28.06;101748.53;4949117;29;20134;-62
2022/04/30 08:35:04;;;;;;;4.43;2.60;;;;;;;22.63;27.73;101741.94;4948386;28;20059;-62
2022/04/30 08:37:46;;;;;;;9.20;2.30;;;;;;;22.76;27.75;101741.63;4940694;29;20531;-61
2022/04/30 08:40:13;;;;;;;6.00;2.40;;;;;;;22.92;27.52;101741.06;4952385;28;20047;-61
2022/04/30 08:42:41;;;;;;;4.63;2.70;;;;;;;23.03;27.31;101740.03;4952509;28;20051;-61
2022/04/30 08:45:09;;;;;;;4.38;2.75;;;;;;;23.17;27.17;101745.94;4952265;28;20778;-61
2022/04/30 08:47:41;;;;;;;8.93;2.60;;;;;;;23.28;26.93;101733.22;4941301;28;20123;-61
2022/04/30 08:50:12;;;;;;;3.55;2.30;;;;;;;23.35;26.87;101738.84;4950153;28;20055;-61
2022/04/30 08:52:39;;;;;;;125.35;9.40;;;;;;;23.54;26.77;101729.03;4947740;28;20047;-61
2022/04/30 08:55:08;;;;;;;6.63;2.30;;;;;;;23.62;26.77;101735.34;4945714;28;20098;-61
2022/04/30 08:57:35;;;;;;;4.75;2.53;;;;;;;23.70;26.48;101729.22;4950766;28;20671;-61
2022/04/30 09:00:04;;;;;;;4.63;2.50;;;;;;;23.77;26.15;101726.81;4952650;28;20546;-61
2022/04/30 09:02:31;;;;;;;3.58;2.65;;;;;;;23.71;26.00;101716.69;4952593;28;20098;-62
2022/04/30 09:04:58;;;;;;;6.43;2.67;;;;;;;23.78;25.97;101726.66;4948810;28;20475;-61
2022/04/30 09:07:26;;;;;;;4.03;2.70;;;;;;;23.98;25.57;101726.56;4952563;28;20051;-62
2022/04/30 09:09:54;;;;;;;4.75;2.65;;;;;;;24.17;25.61;101722.06;4948090;28;20074;-61
2022/04/30 09:12:21;;;;;;;5.15;2.60;;;;;;;24.29;25.43;101724.34;4946788;28;20047;-61
2022/04/30 09:14:48;;;;;;;5.03;2.90;;;;;;;24.42;25.40;101725.81;4944835;28;20046;-61
2022/04/30 09:17:16;;;;;;;6.25;2.80;;;;;;;24.41;25.20;101719.59;4938891;28;20055;-61
2022/04/30 09:19:53;;;;;;;3.85;2.53;;;;;;;24.54;25.05;101713.00;4939564;29;20559;-61
2022/04/30 09:22:28;;;;;;;2.70;2.10;;;;;;;24.77;24.87;101716.91;4949376;29;20047;-61
2022/04/30 09:24:54;;;;;;;3.72;2.78;;;;;;;25.02;24.71;101705.47;4951594;28;20054;-61
2022/04/30 09:27:46;;;;;;;8.23;3.10;;;;;;;25.06;24.47;101696.94;4946810;28;20422;-62
2022/04/30 09:30:21;;;;;;;4.68;2.35;;;;;;;25.22;24.46;101698.03;4951555;28;20047;-61
2022/04/30 09:33:04;;;;;;;6.03;2.85;;;;;;;25.37;24.45;101695.59;4942798;28;20411;-61
2022/04/30 09:38:18;;;;;;;7.10;2.63;;;;;;;25.57;24.44;101685.44;4951649;28;20055;-61
2022/04/30 09:41:00;;;;;;;4.25;2.60;;;;;;;25.74;24.16;101683.66;4951542;28;20055;-61
2022/04/30 09:43:30;;;;;;;6.72;2.85;;;;;;;25.77;23.87;101680.63;4951596;28;20055;-62
2022/04/30 09:46:06;;;;;;;3.45;2.65;;;;;;;25.84;23.70;101683.47;4951726;28;20412;-61
2022/04/30 09:54:07;;;;;;;3.72;2.70;;;;;;;25.89;23.23;101663.16;4951632;28;20051;-61
2022/04/30 09:56:39;;;;;;;6.80;2.67;;;;;;;25.97;22.84;101661.50;4951753;28;20047;-61
2022/04/30 09:59:10;;;;;;;34.03;4.07;;;;;;;25.98;23.08;101657.78;4949450;28;20059;-61
2022/04/30 10:01:47;;;;;;;4.85;2.78;;;;;;;25.79;22.75;101656.25;4956597;28;20486;-61
2022/04/30 10:04:16;;;;;;;33.50;4.75;;;;;;;25.97;22.27;101654.25;4956976;28;20566;-61
2022/04/30 10:06:49;;;;;;;8.55;3.03;;;;;;;26.08;22.16;101653.16;4946097;28;20047;-60
2022/04/30 10:09:22;;;;;;;7.78;3.00;;;;;;;26.21;22.22;101642.69;4951193;28;20094;-61
2022/04/30 10:12:16;;;;;;;7.53;2.78;;;;;;;26.27;22.22;101641.22;4951244;28;20047;-61
2022/04/30 10:14:57;;;;;;;6.78;2.70;;;;;;;26.52;22.28;101642.00;4948519;29;20143;-61
2022/04/30 10:17:27;;;;;;;6.15;2.97;;;;;;;26.31;22.85;101637.16;4951148;28;20047;-61
2022/04/30 10:20:00;;;;;;;4.00;2.80;;;;;;;26.39;22.17;101642.53;4950261;28;20058;-61
2022/04/30 10:22:28;;;;;;;4.68;2.42;;;;;;;26.58;21.87;101635.09;4950946;28;20059;-61
2022/04/30 10:24:56;;;;;;;3.97;2.90;;;;;;;26.48;21.63;101632.59;4951128;28;20117;-61
2022/04/30 10:27:24;;;;;;;4.38;2.97;;;;;;;26.76;21.32;101626.84;4953660;28;20044;-61
2022/04/30 10:30:00;;;;;;;5.00;2.80;;;;;;;26.85;21.36;101623.09;4953113;28;20051;-61
2022/04/30 10:32:30;;;;;;;3.08;2.55;;;;;;;26.81;21.63;101624.47;4950778;28;21000;-61
2022/04/30 10:34:58;;;;;;;2.95;2.47;;;;;;;26.82;21.12;101623.47;4950895;28;20523;-61
2022/04/30 10:37:35;;;;;;;6.07;2.83;;;;;;;26.81;21.58;101619.09;4950649;28;20492;-61
2022/04/30 10:40:10;;;;;;;5.07;3.08;;;;;;;26.75;21.65;101610.84;4955162;28;20047;-61
2022/04/30 10:42:42;;;;;;;4.53;2.72;;;;;;;26.73;21.58;101606.47;4938109;28;20078;-61
2022/04/30 10:45:15;;;;;;;3.08;2.65;;;;;;;26.76;21.61;101605.28;4940243;29;20051;-61
2022/04/30 10:47:58;;;;;;;4.88;3.00;;;;;;;26.41;21.88;101612.78;4942584;28;20039;-61
2022/04/30 10:50:25;;;;;;;4.22;2.88;;;;;;;26.51;21.88;101608.03;4940945;29;20063;-61
2022/04/30 10:52:54;;;;;;;3.90;3.00;;;;;;;26.36;21.98;101601.66;4938490;29;20043;-61
2022/04/30 10:55:25;;;;;;;5.35;2.80;;;;;;;25.96;22.62;101597.97;4941972;29;20048;-61
2022/04/30 10:57:53;;;;;;;6.93;2.35;;;;;;;25.55;23.25;101599.59;4944366;28;20051;-61
2022/04/30 11:00:22;;;;;;;5.05;2.92;;;;;;;25.23;23.25;101586.88;4943700;29;20069;-61
2022/04/30 11:02:49;;;;;;;3.70;2.88;;;;;;;25.02;23.31;101590.00;4948401;28;20118;-61
2022/04/30 11:05:22;;;;;;;5.13;2.92;;;;;;;25.29;23.31;101588.06;4936514;29;20126;-61
2022/04/30 11:07:50;;;;;;;4.80;3.15;;;;;;;25.88;22.31;101580.81;4933381;29;20075;-61
2022/04/30 11:10:17;;;;;;;4.55;3.40;;;;;;;26.22;22.07;101590.59;4942095;28;20054;-61
2022/04/30 11:12:44;;;;;;;4.75;3.08;;;;;;;26.49;21.37;101583.13;4939810;28;20118;-61
2022/04/30 11:15:13;;;;;;;6.78;3.05;;;;;;;26.56;21.70;101567.13;4949681;28;20549;-62
2022/04/30 11:17:47;;;;;;;4.45;3.50;;;;;;;25.87;22.47;101567.53;4944224;28;20470;-61
2022/04/30 11:20:24;;;;;;;4.18;2.97;;;;;;;25.54;23.02;101570.19;4951338;28;20507;-61
2022/04/30 11:23:00;;;;;;;4.68;3.17;;;;;;;26.22;22.49;101558.28;4937192;29;20047;-61
2022/04/30 11:25:36;;;;;;;3.85;2.85;;;;;;;26.64;22.00;101555.47;4949035;28;20058;-61
2022/04/30 11:28:07;;;;;;;6.18;3.92;;;;;;;26.40;22.03;101549.19;4942155;28;20054;-62
2022/04/30 11:30:37;;;;;;;8.07;3.17;;;;;;;26.19;22.45;101544.34;4944129;28;20070;-62
2022/04/30 11:33:05;;;;;;;6.18;3.30;;;;;;;26.21;22.83;101545.03;4940740;29;20812;-62
2022/04/30 11:35:32;;;;;;;3.83;3.20;;;;;;;26.07;22.84;101539.31;4950034;28;20051;-62
2022/04/30 11:37:58;;;;;;;5.28;3.53;;;;;;;25.84;23.18;101540.97;4942552;28;20055;-61
2022/04/30 11:40:26;;;;;;;5.13;3.30;;;;;;;25.46;23.39;101538.78;4943439;29;20408;-61
2022/04/30 11:43:00;;;;;;;9.95;3.50;;;;;;;25.21;23.88;101536.00;4937323;29;20055;-62
2022/04/30 11:45:31;;;;;;;5.38;3.20;;;;;;;25.02;24.41;101545.19;4949632;28;20052;-61
2022/04/30 11:48:05;;;;;;;11.88;4.38;;;;;;;24.85;24.96;101538.06;4934839;29;20129;-62
2022/04/30 11:50:32;;;;;;;4.65;3.60;;;;;;;24.58;25.40;101531.88;4941096;28;20110;-61
2022/04/30 11:52:59;;;;;;;6.15;3.83;;;;;;;24.58;25.38;101538.09;4933921;29;20047;-61
2022/04/30 11:55:28;;;;;;;4.55;3.40;;;;;;;24.58;25.52;101540.78;4935495;28;20051;-61
2022/04/30 11:58:02;;;;;;;12.35;3.90;;;;;;;24.72;25.64;101534.00;4938085;28;20043;-61
2022/04/30 12:00:35;;;;;;;5.95;3.42;;;;;;;24.59;26.37;101531.75;4952713;28;20047;-61
2022/04/30 12:03:01;;;;;;;5.75;3.45;;;;;;;24.62;26.28;101525.22;4953606;28;20115;-61